createdAt,value
2019-06-26T00:01:39.563Z,7.00
2019-06-26T00:11:40.542Z,6.97
2019-06-26T00:21:41.537Z,7.23
2019-06-26T00:31:42.715Z,6.70
2019-06-26T00:41:43.499Z,8.43
2019-06-26T00:51:44.271Z,8.73
2019-06-26T01:01:45.056Z,8.50
2019-06-26T01:11:46.070Z,8.30
2019-06-26T01:21:47.373Z,7.70
2019-06-26T01:31:49.743Z,8.03
2019-06-26T01:41:50.381Z,7.50
2019-06-26T01:51:51.053Z,6.30
2019-06-26T02:01:52.156Z,6.60
2019-06-26T02:11:52.938Z,5.70
2019-06-26T02:21:54.468Z,6.87
2019-06-26T02:31:55.559Z,7.33
2019-06-26T02:41:56.515Z,7.90
2019-06-26T02:51:57.227Z,7.33
2019-06-26T03:01:58.253Z,7.60
2019-06-26T03:11:58.956Z,7.63
2019-06-26T03:21:59.728Z,8.13
2019-06-26T03:32:01.060Z,7.80
2019-06-26T03:42:02.334Z,7.30
2019-06-26T03:52:03.665Z,7.27
2019-06-26T04:02:04.393Z,7.37
2019-06-26T04:12:05.659Z,6.90
2019-06-26T04:22:06.648Z,7.03
2019-06-26T04:32:07.789Z,6.50
2019-06-26T04:42:09.177Z,7.40
2019-06-26T04:52:10.464Z,7.00
2019-06-26T05:02:11.389Z,7.10
2019-06-26T05:12:12.471Z,7.27
2019-06-26T05:22:13.183Z,6.77
2019-06-26T05:32:14.347Z,7.93
2019-06-26T05:42:15.452Z,7.90
2019-06-26T05:52:16.844Z,7.47
2019-06-26T06:02:17.874Z,7.07
2019-06-26T06:12:18.942Z,9.47
2019-06-26T06:22:20.145Z,10.13
2019-06-26T06:32:21.139Z,10.97
2019-06-26T06:42:21.803Z,12.27
2019-06-26T06:52:22.756Z,15.87
2019-06-26T07:02:23.591Z,16.33
2019-06-26T07:12:24.598Z,17.93
2019-06-26T07:22:25.361Z,16.87
2019-06-26T07:32:26.513Z,16.87
2019-06-26T07:42:27.137Z,17.00
2019-06-26T07:52:27.928Z,16.13
2019-06-26T08:02:29.167Z,17.53
2019-06-26T08:12:30.271Z,18.07
2019-06-26T08:22:31.312Z,17.90
2019-06-26T08:32:32.113Z,18.37
2019-06-26T08:42:33.240Z,16.90
2019-06-26T08:52:34.788Z,14.93
2019-06-26T09:02:35.740Z,15.33
2019-06-26T09:12:36.687Z,17.50
2019-06-26T09:22:37.715Z,14.23
2019-06-26T09:32:38.371Z,12.50
2019-06-26T09:42:39.410Z,14.33
2019-06-26T09:52:40.209Z,12.23
2019-06-26T10:02:40.966Z,12.37
2019-06-26T10:12:41.720Z,11.30
2019-06-26T10:22:42.742Z,10.60
2019-06-26T10:32:43.550Z,12.33
2019-06-26T10:42:44.597Z,10.37
2019-06-26T10:52:45.842Z,10.83
2019-06-26T11:02:46.869Z,10.70
2019-06-26T11:12:49.172Z,10.87
2019-06-26T11:22:50.351Z,11.40
2019-06-26T11:32:51.379Z,9.90
2019-06-26T11:42:53.428Z,10.47
2019-06-26T11:52:54.705Z,10.83
2019-06-26T12:02:55.383Z,10.73
2019-06-26T12:12:56.200Z,10.53
2019-06-26T12:22:57.105Z,8.37
2019-06-26T12:33:03.265Z,8.83
2019-06-26T12:43:01.190Z,8.10
2019-06-26T12:53:01.921Z,9.47
2019-06-26T13:03:04.011Z,8.33
2019-06-26T13:13:05.713Z,8.50
2019-06-26T13:23:06.690Z,7.57
2019-06-26T13:33:07.387Z,8.20
2019-06-26T13:43:08.256Z,7.87
2019-06-26T13:53:09.477Z,8.33
2019-06-26T14:03:13.214Z,7.87
2019-06-26T14:13:14.836Z,8.67
2019-06-26T14:23:16.764Z,8.57
2019-06-26T14:33:18.784Z,8.53
2019-06-26T14:43:20.789Z,9.47
2019-06-26T14:53:22.026Z,9.20
2019-06-26T15:03:22.827Z,9.83
2019-06-26T15:13:23.679Z,10.00
2019-06-26T15:23:24.751Z,10.87
2019-06-26T15:33:25.689Z,11.07
2019-06-26T15:43:26.728Z,12.17
2019-06-26T15:53:27.386Z,12.90
2019-06-26T16:03:28.339Z,13.67
2019-06-26T16:13:29.231Z,13.67
2019-06-26T16:23:30.450Z,13.33
2019-06-26T16:33:31.219Z,12.13
2019-06-26T16:43:32.122Z,12.67
2019-06-26T16:53:35.468Z,12.70
2019-06-26T17:03:35.986Z,12.57
2019-06-26T17:13:37.057Z,12.07
2019-06-26T17:23:37.832Z,10.90
2019-06-26T17:33:39.245Z,10.27
2019-06-26T17:43:39.941Z,10.13
2019-06-26T17:53:41.018Z,9.60
2019-06-26T18:03:41.815Z,9.80
2019-06-26T18:13:42.583Z,9.03
2019-06-26T18:23:43.615Z,9.93
2019-06-26T18:33:45.344Z,9.73
2019-06-26T18:43:46.282Z,10.27
2019-06-26T18:53:53.494Z,11.53
2019-06-26T19:03:49.902Z,12.53
2019-06-26T19:13:50.838Z,13.20
2019-06-26T19:23:51.843Z,12.90
2019-06-26T19:33:52.702Z,14.67
2019-06-26T19:48:46.022Z,14.00
2019-06-26T19:58:46.837Z,15.33
2019-06-26T20:08:53.382Z,15.53
2019-06-26T20:18:50.226Z,16.33
2019-06-26T20:28:51.235Z,16.33
2019-06-26T20:38:52.515Z,17.90
2019-06-26T20:48:53.524Z,18.27
2019-06-26T20:58:54.495Z,18.57
2019-06-26T21:08:55.465Z,18.93
2019-06-26T21:18:56.196Z,18.77
2019-06-26T21:29:00.678Z,19.53
2019-06-26T21:38:59.818Z,19.07
2019-06-26T21:49:00.532Z,19.33
2019-06-26T21:59:01.508Z,18.90
2019-06-26T22:09:03.702Z,20.23
2019-06-26T22:19:04.492Z,19.20
2019-06-26T22:29:05.360Z,20.47
2019-06-26T22:39:06.143Z,20.07
2019-06-26T22:49:06.963Z,19.27
2019-06-26T22:59:08.365Z,19.83
2019-06-26T23:09:09.150Z,19.13
2019-06-26T23:19:10.117Z,19.83
2019-06-26T23:29:11.208Z,19.83
2019-06-26T23:39:11.990Z,22.27
2019-06-26T23:49:13.008Z,19.87
2019-06-26T23:59:14.086Z,20.57
